If you wish to contribute or participate in the discussions about articles you are invited to join SKYbrary as a registered user

 Actions

Tela Airport

From SKYbrary Wiki

MHTE
Airport
ICAO: MHTE – IATA: TEA
Summary
Name Tela Airport
Region South America and Caribbean
Territory Honduras HN.gif
Location Tela, Atlantida Department
Serving Tela
Coordinates 15° 46' 35.82" N, 87° 28' 21.29" W
Runways
Designator Length Width Surface ROPS
6/24 1346 m4,416.011 ft
30 m98.425 ft
ASP /


METAR
Observation MHTE 190000Z 09004KT 9999 BKN024TCU 30/26 Q1009 TCU ALL HZ
Station Tela
Date/Time 19 September 2019 00:00:00
Wind direction 90°
Wind speed 04 kts
Lowest cloud amount broken clouds
Temperature 30°C
Dew point 26°C
Humidity 79%
QNH 1009 hPa
Weather condition n/a

Tela Airport is an airport serving Tela, a town in the Atlántida Department on the northern coast of Honduras.

Climatology

Tropical monsoon climate (Köppen climate classification Am)

Maps

Terrain

Loading map...

Airport Layout

Loading map...


Accidents & Serious Incidents at or in vicinity of MHTE

None on SKYbrary